Time;durP1;ratioP1;P1;durP2;ratioP2;P2;SDS_P1;SDS_P2;PMS_P1;PMS_P2;Temp;Humidity;BMP_temperature;BMP_pressure;BME280_temperature;BME280_humidity;BME280_pressure;Samples;Min_cycle;Max_cycle;Signal;HPM_P1;HPM_P2
2023/11/29 00:00:15;;;;;;;2.65;1.60;;;;;;;;;;5042882;28;20032;-60
2023/11/29 00:02:40;;;;;;;2.53;1.60;;;;;;;;;;5044844;28;20064;-60
2023/11/29 00:05:08;;;;;;;2.70;1.80;;;;;;;;;;5041382;28;20120;-61
2023/11/29 00:07:33;;;;;;;2.72;1.50;;;;;;;;;;5042579;28;20033;-60
2023/11/29 00:10:02;;;;;;;2.53;1.80;;;;;;;;;;5042125;28;20039;-59
2023/11/29 00:12:27;;;;;;;2.70;1.83;;;;;;;;;;5038022;28;20687;-59
2023/11/29 00:14:53;;;;;;;2.88;1.67;;;;;;;;;;5038359;28;20085;-58
2023/11/29 00:17:18;;;;;;;3.00;1.70;;;;;;;;;;5042183;28;20047;-59
2023/11/29 00:19:43;;;;;;;3.15;1.73;;;;;;;;;;5042368;28;20520;-59
2023/11/29 00:22:11;;;;;;;2.80;1.58;;;;;;;;;;5043420;28;20053;-59
2023/11/29 00:24:37;;;;;;;2.90;1.63;;;;;;;;;;5043632;28;20804;-58
2023/11/29 00:27:04;;;;;;;3.05;1.67;;;;;;;;;;5044458;28;20045;-58
2023/11/29 00:29:29;;;;;;;2.90;1.65;;;;;;;;;;5036948;28;20037;-58
2023/11/29 00:31:57;;;;;;;2.60;1.58;;;;;;;;;;5042188;28;20041;-57
2023/11/29 00:34:23;;;;;;;3.03;1.73;;;;;;;;;;5043531;28;20044;-59
2023/11/29 00:36:54;;;;;;;2.40;1.67;;;;;;;;;;5043852;28;20107;-59
2023/11/29 00:39:20;;;;;;;2.95;1.52;;;;;;;;;;5042260;28;20372;-59
2023/11/29 00:41:46;;;;;;;2.70;1.40;;;;;;;;;;5042011;28;20154;-59
2023/11/29 00:44:12;;;;;;;2.20;1.60;;;;;;;;;;5039518;28;20045;-59
2023/11/29 00:46:37;;;;;;;2.40;1.52;;;;;;;;;;5040766;28;20044;-58
2023/11/29 00:49:04;;;;;;;1.83;1.50;;;;;;;;;;5042370;28;20044;-59
2023/11/29 00:51:30;;;;;;;2.25;1.33;;;;;;;;;;5043236;28;20063;-58
2023/11/29 00:53:55;;;;;;;2.38;1.67;;;;;;;;;;5044507;28;20028;-60
2023/11/29 00:56:20;;;;;;;1.80;1.20;;;;;;;;;;5043059;28;20415;-59
2023/11/29 00:58:47;;;;;;;2.75;1.70;;;;;;;;;;5037698;28;20040;-61
2023/11/29 01:01:13;;;;;;;1.85;1.25;;;;;;;;;;5042953;28;20037;-59
2023/11/29 01:03:38;;;;;;;2.00;1.50;;;;;;;;;;5039908;28;20029;-59
2023/11/29 01:06:03;;;;;;;2.55;1.55;;;;;;;;;;5034620;28;20400;-59
2023/11/29 01:08:29;;;;;;;2.80;1.70;;;;;;;;;;5030276;28;20090;-58
2023/11/29 01:10:54;;;;;;;2.00;1.30;;;;;;;;;;5041888;28;20056;-58
2023/11/29 01:13:22;;;;;;;2.20;1.35;;;;;;;;;;5041108;28;20131;-58
2023/11/29 01:15:51;;;;;;;2.50;1.50;;;;;;;;;;5042222;28;20094;-57
2023/11/29 01:18:16;;;;;;;2.03;1.40;;;;;;;;;;5050544;28;20909;-58
2023/11/29 01:20:41;;;;;;;2.25;1.60;;;;;;;;;;5038065;28;20037;-58
2023/11/29 01:23:07;;;;;;;2.85;1.50;;;;;;;;;;5040622;28;20029;-59
2023/11/29 01:25:32;;;;;;;1.98;1.23;;;;;;;;;;5041457;28;20065;-60
2023/11/29 01:27:57;;;;;;;2.55;1.63;;;;;;;;;;5042522;28;20032;-59
2023/11/29 01:30:23;;;;;;;1.80;1.20;;;;;;;;;;5042744;28;20437;-58
2023/11/29 01:32:48;;;;;;;1.90;1.48;;;;;;;;;;5041789;28;20760;-58
2023/11/29 01:35:13;;;;;;;2.05;1.40;;;;;;;;;;5038877;28;20033;-59
2023/11/29 01:37:39;;;;;;;2.22;1.45;;;;;;;;;;5035497;28;20049;-59
2023/11/29 01:40:08;;;;;;;1.88;1.30;;;;;;;;;;5042112;28;20831;-60
2023/11/29 01:42:34;;;;;;;2.15;1.40;;;;;;;;;;5029988;28;20037;-60
2023/11/29 01:44:59;;;;;;;2.28;1.52;;;;;;;;;;5036788;28;20032;-58
2023/11/29 01:47:29;;;;;;;1.95;1.20;;;;;;;;;;5041628;28;20422;-60
2023/11/29 01:49:56;;;;;;;2.07;1.33;;;;;;;;;;5042012;28;20056;-60
2023/11/29 01:52:21;;;;;;;2.03;1.45;;;;;;;;;;5040812;28;20494;-59
2023/11/29 01:54:48;;;;;;;2.50;1.60;;;;;;;;;;5027713;28;20108;-58
2023/11/29 01:57:14;;;;;;;2.60;1.70;;;;;;;;;;5039334;28;20053;-60
2023/11/29 01:59:39;;;;;;;2.08;1.30;;;;;;;;;;5041034;28;20033;-60
2023/11/29 02:02:05;;;;;;;2.45;1.33;;;;;;;;;;5042006;28;20037;-58
2023/11/29 02:04:30;;;;;;;1.50;1.17;;;;;;;;;;5040725;28;20040;-58
2023/11/29 02:06:55;;;;;;;1.42;1.10;;;;;;;;;;5040223;28;20107;-58
2023/11/29 02:09:23;;;;;;;2.15;1.30;;;;;;;;;;5040072;28;20049;-58
2023/11/29 02:11:52;;;;;;;2.05;1.35;;;;;;;;;;5040895;28;20045;-59
2023/11/29 02:14:17;;;;;;;1.83;1.23;;;;;;;;;;5042658;28;20556;-58
2023/11/29 02:16:43;;;;;;;2.25;1.35;;;;;;;;;;5040633;28;20057;-58
2023/11/29 02:19:08;;;;;;;1.75;1.40;;;;;;;;;;5041502;28;20418;-58
2023/11/29 02:21:34;;;;;;;1.90;1.20;;;;;;;;;;5040767;28;20041;-58
2023/11/29 02:24:02;;;;;;;1.40;1.05;;;;;;;;;;5039587;28;20037;-59
2023/11/29 02:26:28;;;;;;;3.00;1.30;;;;;;;;;;5042371;28;20139;-58
2023/11/29 02:28:56;;;;;;;1.50;0.95;;;;;;;;;;5033606;28;20061;-58
2023/11/29 02:31:21;;;;;;;1.88;1.33;;;;;;;;;;5043608;28;20167;-58
2023/11/29 02:33:49;;;;;;;1.98;1.20;;;;;;;;;;5037611;28;20100;-58
2023/11/29 02:36:15;;;;;;;1.60;1.02;;;;;;;;;;5043666;28;20548;-59
2023/11/29 02:38:40;;;;;;;2.08;1.10;;;;;;;;;;5045095;28;20061;-59
2023/11/29 02:41:05;;;;;;;1.73;1.20;;;;;;;;;;5044851;28;20044;-59
2023/11/29 02:43:31;;;;;;;1.83;1.13;;;;;;;;;;5044752;28;20045;-59
2023/11/29 02:45:59;;;;;;;2.10;1.20;;;;;;;;;;5033787;28;20026;-58
2023/11/29 02:48:24;;;;;;;2.00;1.30;;;;;;;;;;5028404;28;20191;-60
2023/11/29 02:50:52;;;;;;;2.22;1.30;;;;;;;;;;5043791;28;20080;-60
2023/11/29 02:53:18;;;;;;;1.70;1.20;;;;;;;;;;5044577;28;20140;-59
2023/11/29 02:55:46;;;;;;;1.45;1.02;;;;;;;;;;5043216;28;20036;-60
2023/11/29 02:58:11;;;;;;;1.90;1.17;;;;;;;;;;5043141;28;20499;-58
2023/11/29 03:00:37;;;;;;;1.63;1.25;;;;;;;;;;5045707;28;20128;-60
2023/11/29 03:03:02;;;;;;;1.90;1.30;;;;;;;;;;5032206;28;20073;-58
2023/11/29 03:05:27;;;;;;;1.90;1.00;;;;;;;;;;5042634;28;20041;-60
2023/11/29 03:07:54;;;;;;;1.40;0.90;;;;;;;;;;5042774;28;20033;-58
2023/11/29 03:10:21;;;;;;;1.50;1.00;;;;;;;;;;5043744;28;20048;-58
2023/11/29 03:12:46;;;;;;;1.40;1.02;;;;;;;;;;5045691;28;20025;-59
2023/11/29 03:15:12;;;;;;;1.52;1.02;;;;;;;;;;5045613;28;20104;-59
2023/11/29 03:17:37;;;;;;;2.22;1.20;;;;;;;;;;5043305;28;20036;-61
2023/11/29 03:20:03;;;;;;;1.60;0.90;;;;;;;;;;5040100;28;20028;-58
2023/11/29 03:22:29;;;;;;;1.73;1.10;;;;;;;;;;5045053;28;20388;-58
2023/11/29 03:24:54;;;;;;;1.38;0.98;;;;;;;;;;5044079;28;20040;-58
2023/11/29 03:27:19;;;;;;;1.35;0.93;;;;;;;;;;5044420;28;20025;-58
2023/11/29 03:29:44;;;;;;;1.45;1.00;;;;;;;;;;5038835;28;20031;-58
2023/11/29 03:32:12;;;;;;;1.85;1.00;;;;;;;;;;5041189;28;20025;-59
2023/11/29 03:34:37;;;;;;;1.45;0.80;;;;;;;;;;5035120;28;20149;-60
2023/11/29 03:37:03;;;;;;;1.55;1.08;;;;;;;;;;5038147;28;20103;-59
2023/11/29 03:39:28;;;;;;;1.80;1.00;;;;;;;;;;5032172;28;20497;-60
2023/11/29 03:41:53;;;;;;;1.77;1.00;;;;;;;;;;5043208;28;20037;-58
2023/11/29 03:44:22;;;;;;;1.42;0.80;;;;;;;;;;5044691;28;20518;-59
2023/11/29 03:46:47;;;;;;;1.38;0.90;;;;;;;;;;5042933;28;20437;-58
2023/11/29 03:49:12;;;;;;;1.67;1.08;;;;;;;;;;5042606;28;20491;-61
2023/11/29 03:51:38;;;;;;;1.73;1.00;;;;;;;;;;5044567;28;20533;-58
2023/11/29 03:54:03;;;;;;;1.20;0.80;;;;;;;;;;5039208;28;20068;-59
2023/11/29 03:56:28;;;;;;;1.40;0.95;;;;;;;;;;5040928;28;20077;-59
2023/11/29 03:58:53;;;;;;;1.70;0.90;;;;;;;;;;5038238;28;20143;-58
2023/11/29 04:01:19;;;;;;;1.73;0.93;;;;;;;;;;5039361;28;20139;-58
2023/11/29 04:03:44;;;;;;;1.38;0.90;;;;;;;;;;5041553;28;20480;-59
2023/11/29 04:06:10;;;;;;;1.50;0.95;;;;;;;;;;5039890;28;20973;-59
2023/11/29 04:08:35;;;;;;;1.42;1.00;;;;;;;;;;5043424;28;20024;-60
2023/11/29 04:11:05;;;;;;;1.48;0.85;;;;;;;;;;5029449;28;20483;-59
2023/11/29 04:13:30;;;;;;;2.13;0.80;;;;;;;;;;5017997;28;21084;-59
2023/11/29 04:15:55;;;;;;;1.38;0.80;;;;;;;;;;5023451;28;20286;-59
2023/11/29 04:18:20;;;;;;;2.60;0.70;;;;;;;;;;5020154;28;20041;-59
2023/11/29 04:20:46;;;;;;;1.65;0.80;;;;;;;;;;5018711;28;20063;-60
2023/11/29 04:23:11;;;;;;;2.97;0.77;;;;;;;;;;5016552;28;20029;-59
2023/11/29 04:25:36;;;;;;;0.80;0.68;;;;;;;;;;5022030;28;20440;-59
2023/11/29 04:28:03;;;;;;;1.52;0.80;;;;;;;;;;5012993;28;20034;-59
2023/11/29 04:30:28;;;;;;;1.55;0.80;;;;;;;;;;5014989;28;20029;-59
2023/11/29 04:32:53;;;;;;;1.20;0.75;;;;;;;;;;5011332;28;20048;-59
2023/11/29 04:35:22;;;;;;;1.38;0.75;;;;;;;;;;5010815;28;20029;-59
2023/11/29 04:37:47;;;;;;;1.13;0.73;;;;;;;;;;5006686;28;20045;-58
2023/11/29 04:40:14;;;;;;;1.23;0.65;;;;;;;;;;5008735;28;20029;-59
2023/11/29 04:42:40;;;;;;;1.05;0.70;;;;;;;;;;5008973;28;20621;-59
2023/11/29 04:45:08;;;;;;;1.13;0.85;;;;;;;;;;5017116;28;20310;-59
2023/11/29 04:47:33;;;;;;;1.38;0.80;;;;;;;;;;5001068;28;20056;-59
2023/11/29 04:49:59;;;;;;;0.90;0.50;;;;;;;;;;5014399;28;20387;-59
2023/11/29 04:52:24;;;;;;;1.25;0.90;;;;;;;;;;5010125;28;20787;-59
2023/11/29 04:54:50;;;;;;;1.33;0.65;;;;;;;;;;5022713;28;20033;-58
2023/11/29 04:57:16;;;;;;;1.30;0.65;;;;;;;;;;5013949;28;20076;-59
2023/11/29 04:59:42;;;;;;;1.00;0.63;;;;;;;;;;5012726;28;20033;-58
2023/11/29 05:02:07;;;;;;;1.50;0.60;;;;;;;;;;5017086;28;20036;-59
2023/11/29 05:04:32;;;;;;;1.20;0.63;;;;;;;;;;5013771;28;20468;-59
2023/11/29 05:06:58;;;;;;;1.27;0.60;;;;;;;;;;5015362;28;20036;-59
2023/11/29 05:09:24;;;;;;;1.45;0.80;;;;;;;;;;5011923;28;20038;-60
2023/11/29 05:11:50;;;;;;;1.05;0.60;;;;;;;;;;5013310;28;20083;-59
2023/11/29 05:14:15;;;;;;;0.93;0.60;;;;;;;;;;4994606;28;20130;-59
2023/11/29 05:16:41;;;;;;;1.05;0.60;;;;;;;;;;5012757;28;20155;-58
2023/11/29 05:19:06;;;;;;;0.70;0.50;;;;;;;;;;5013505;28;20029;-58
2023/11/29 05:21:32;;;;;;;1.48;0.77;;;;;;;;;;5012002;28;20106;-57
2023/11/29 05:23:57;;;;;;;1.27;0.60;;;;;;;;;;5010826;28;20159;-58
2023/11/29 05:26:22;;;;;;;0.88;0.65;;;;;;;;;;5017582;28;20041;-58
2023/11/29 05:28:47;;;;;;;1.17;0.70;;;;;;;;;;5015690;28;20240;-58
2023/11/29 05:31:13;;;;;;;1.27;0.77;;;;;;;;;;5022891;28;20671;-58
2023/11/29 05:33:38;;;;;;;0.70;0.38;;;;;;;;;;5022703;28;20041;-58
2023/11/29 05:36:05;;;;;;;2.03;0.70;;;;;;;;;;5014047;28;20041;-58
2023/11/29 05:38:49;;;;;;;7.95;0.73;;;;;;;;;;5019848;28;20049;-59
2023/11/29 05:41:15;;;;;;;2.47;0.60;;;;;;;;;;5017476;28;20825;-59
2023/11/29 05:43:41;;;;;;;3.03;0.65;;;;;;;;;;5026676;28;20033;-60
2023/11/29 05:46:07;;;;;;;2.72;0.68;;;;;;;;;;5012999;28;20037;-60
2023/11/29 05:48:32;;;;;;;1.35;0.60;;;;;;;;;;5009047;28;20084;-59
2023/11/29 05:50:58;;;;;;;1.77;0.60;;;;;;;;;;5013600;28;20038;-58
2023/11/29 05:53:23;;;;;;;1.67;0.60;;;;;;;;;;5000370;28;20040;-60
2023/11/29 05:55:48;;;;;;;2.22;0.73;;;;;;;;;;5011780;28;20507;-60
2023/11/29 05:58:14;;;;;;;1.25;0.60;;;;;;;;;;5015290;28;20049;-58
2023/11/29 06:00:39;;;;;;;1.98;0.93;;;;;;;;;;5023996;28;20041;-58
2023/11/29 06:03:05;;;;;;;1.10;0.63;;;;;;;;;;5037186;28;20084;-59
2023/11/29 06:05:30;;;;;;;2.00;0.60;;;;;;;;;;5019680;28;20037;-58
2023/11/29 06:07:56;;;;;;;0.98;0.43;;;;;;;;;;5017792;28;20075;-59
2023/11/29 06:10:22;;;;;;;1.55;0.60;;;;;;;;;;5026765;28;20043;-58
2023/11/29 06:12:47;;;;;;;3.53;0.70;;;;;;;;;;5021028;28;20034;-59
2023/11/29 06:15:16;;;;;;;0.68;0.50;;;;;;;;;;5021758;28;20033;-59
2023/11/29 06:17:42;;;;;;;1.27;0.60;;;;;;;;;;5020129;28;20140;-59
2023/11/29 06:20:09;;;;;;;2.63;0.60;;;;;;;;;;5021964;28;20156;-57
2023/11/29 06:22:34;;;;;;;0.77;0.50;;;;;;;;;;5018628;28;20033;-57
2023/11/29 06:25:04;;;;;;;1.33;0.50;;;;;;;;;;5017641;28;20040;-57
2023/11/29 06:27:30;;;;;;;0.95;0.50;;;;;;;;;;5016524;28;20069;-59
2023/11/29 06:29:57;;;;;;;1.38;0.60;;;;;;;;;;5015791;28;20979;-58
2023/11/29 06:32:22;;;;;;;1.52;0.52;;;;;;;;;;5014452;28;20059;-58
2023/11/29 06:34:48;;;;;;;0.98;0.60;;;;;;;;;;5019066;28;20029;-61
2023/11/29 06:37:14;;;;;;;1.33;0.68;;;;;;;;;;5016709;28;20106;-58
2023/11/29 06:39:39;;;;;;;1.67;0.68;;;;;;;;;;5027061;28;20049;-58
2023/11/29 06:42:05;;;;;;;6.85;1.10;;;;;;;;;;5024494;28;20047;-57
2023/11/29 06:44:30;;;;;;;4.47;0.77;;;;;;;;;;5023397;28;20053;-60
2023/11/29 06:46:57;;;;;;;5.00;0.70;;;;;;;;;;5022573;28;20188;-59
2023/11/29 06:49:22;;;;;;;3.17;0.65;;;;;;;;;;5008580;28;20037;-57
2023/11/29 06:51:48;;;;;;;2.33;0.50;;;;;;;;;;5009808;28;20037;-57
2023/11/29 06:54:15;;;;;;;3.63;0.70;;;;;;;;;;5012880;28;20033;-60
2023/11/29 06:56:41;;;;;;;2.33;0.73;;;;;;;;;;5018915;28;20137;-59
2023/11/29 06:59:11;;;;;;;2.33;0.85;;;;;;;;;;5034814;28;20163;-58
2023/11/29 07:01:36;;;;;;;1.48;0.82;;;;;;;;;;5031995;28;20152;-58
2023/11/29 07:04:03;;;;;;;3.50;0.73;;;;;;;;;;5015525;28;21252;-61
2023/11/29 07:06:28;;;;;;;1.20;0.70;;;;;;;;;;5022387;28;20427;-59
2023/11/29 07:08:54;;;;;;;1.55;0.63;;;;;;;;;;5024548;28;20115;-59
2023/11/29 07:11:19;;;;;;;1.10;0.50;;;;;;;;;;5016924;28;20133;-57
2023/11/29 07:13:45;;;;;;;2.28;0.63;;;;;;;;;;5013335;28;20132;-59
2023/11/29 07:16:10;;;;;;;1.25;0.55;;;;;;;;;;5020309;28;20143;-59
2023/11/29 07:18:37;;;;;;;2.45;0.60;;;;;;;;;;5017204;28;20204;-58
2023/11/29 07:21:02;;;;;;;1.88;0.70;;;;;;;;;;5018573;28;20060;-58
2023/11/29 07:23:28;;;;;;;3.28;0.60;;;;;;;;;;4998804;28;20151;-58
2023/11/29 07:25:54;;;;;;;2.85;0.60;;;;;;;;;;5019621;28;20486;-58
2023/11/29 07:28:21;;;;;;;1.42;0.60;;;;;;;;;;5017808;28;20041;-59
2023/11/29 07:30:46;;;;;;;1.88;0.70;;;;;;;;;;5012697;28;20170;-58
2023/11/29 07:33:15;;;;;;;1.98;0.50;;;;;;;;;;5015399;28;20033;-58
2023/11/29 07:35:40;;;;;;;1.20;0.50;;;;;;;;;;5014371;28;21903;-57
2023/11/29 07:38:05;;;;;;;1.20;0.60;;;;;;;;;;5017851;28;20057;-58
2023/11/29 07:40:31;;;;;;;1.35;0.70;;;;;;;;;;5014185;28;20033;-59
2023/11/29 07:42:56;;;;;;;0.85;0.60;;;;;;;;;;5013326;28;20324;-57
2023/11/29 07:45:23;;;;;;;2.22;0.70;;;;;;;;;;5018786;28;20044;-58
2023/11/29 07:47:49;;;;;;;1.40;0.65;;;;;;;;;;5020787;28;20033;-59
2023/11/29 07:50:14;;;;;;;2.97;0.70;;;;;;;;;;5021726;28;20041;-57
2023/11/29 07:52:40;;;;;;;2.20;0.55;;;;;;;;;;5023091;28;20030;-60
2023/11/29 07:55:11;;;;;;;1.33;0.50;;;;;;;;;;5015602;28;20037;-59
2023/11/29 07:57:36;;;;;;;2.05;0.75;;;;;;;;;;5015801;28;20073;-58
2023/11/29 08:00:05;;;;;;;2.33;0.88;;;;;;;;;;5029464;28;20632;-58
2023/11/29 08:02:31;;;;;;;0.88;0.50;;;;;;;;;;5018043;28;20037;-59
2023/11/29 08:04:58;;;;;;;1.30;0.50;;;;;;;;;;5023078;28;20042;-60
2023/11/29 08:07:24;;;;;;;1.42;0.70;;;;;;;;;;5024016;28;20045;-59
2023/11/29 08:09:52;;;;;;;1.48;0.70;;;;;;;;;;5020312;28;20087;-59
2023/11/29 08:12:18;;;;;;;1.23;0.60;;;;;;;;;;5021941;28;20041;-58
2023/11/29 08:14:43;;;;;;;1.67;0.60;;;;;;;;;;5026049;28;20051;-58
2023/11/29 08:17:10;;;;;;;1.73;0.60;;;;;;;;;;5020270;28;20354;-59
2023/11/29 08:19:35;;;;;;;1.40;0.68;;;;;;;;;;5015642;28;20499;-58
2023/11/29 08:22:03;;;;;;;2.25;0.73;;;;;;;;;;5043501;28;20116;-58
2023/11/29 08:24:31;;;;;;;1.73;0.80;;;;;;;;;;5029334;28;20037;-58
2023/11/29 08:26:57;;;;;;;1.48;0.80;;;;;;;;;;5042790;28;20068;-58
2023/11/29 08:29:22;;;;;;;1.50;0.80;;;;;;;;;;5042028;28;20032;-58
2023/11/29 08:31:49;;;;;;;1.30;0.68;;;;;;;;;;5042499;28;20028;-60
2023/11/29 08:34:14;;;;;;;2.35;0.88;;;;;;;;;;5038088;28;20147;-58
2023/11/29 08:36:43;;;;;;;3.03;0.73;;;;;;;;;;5041880;28;20032;-59
2023/11/29 08:39:08;;;;;;;2.00;0.90;;;;;;;;;;5039384;28;20098;-58
2023/11/29 08:41:36;;;;;;;1.98;0.77;;;;;;;;;;5040241;28;20548;-61
2023/11/29 08:44:05;;;;;;;2.17;0.70;;;;;;;;;;5040697;28;20470;-60
2023/11/29 08:46:30;;;;;;;1.52;0.80;;;;;;;;;;5041352;28;20032;-59
2023/11/29 08:48:55;;;;;;;1.90;0.80;;;;;;;;;;5041037;28;20379;-59
2023/11/29 08:51:21;;;;;;;2.15;0.90;;;;;;;;;;5020787;28;20033;-60
2023/11/29 08:53:46;;;;;;;1.83;0.70;;;;;;;;;;5036366;28;20021;-60
2023/11/29 08:56:16;;;;;;;1.80;0.80;;;;;;;;;;5040201;28;20013;-58
2023/11/29 08:58:41;;;;;;;2.22;0.70;;;;;;;;;;5041820;28;20200;-58
2023/11/29 09:01:07;;;;;;;1.42;0.70;;;;;;;;;;5040175;28;20886;-57
2023/11/29 09:03:32;;;;;;;1.85;0.68;;;;;;;;;;5041692;28;20033;-58
2023/11/29 09:05:57;;;;;;;3.00;0.75;;;;;;;;;;5042463;28;20029;-58
2023/11/29 09:08:23;;;;;;;1.00;0.65;;;;;;;;;;5039723;28;20029;-62
2023/11/29 09:10:48;;;;;;;1.77;0.80;;;;;;;;;;5035144;28;20423;-58
2023/11/29 09:13:13;;;;;;;1.10;0.60;;;;;;;;;;5038794;28;20115;-58
2023/11/29 09:15:42;;;;;;;1.40;0.80;;;;;;;;;;5043041;28;20052;-59
2023/11/29 09:18:16;;;;;;;2.10;0.80;;;;;;;;;;5042408;28;20057;-58
2023/11/29 09:20:43;;;;;;;1.27;0.77;;;;;;;;;;5041484;28;20037;-59
2023/11/29 09:23:09;;;;;;;1.95;0.80;;;;;;;;;;5042395;28;20541;-59
2023/11/29 09:25:38;;;;;;;1.33;0.70;;;;;;;;;;5040182;28;20036;-59
2023/11/29 09:28:06;;;;;;;1.30;0.70;;;;;;;;;;5040314;28;20160;-58
2023/11/29 09:30:33;;;;;;;1.63;0.85;;;;;;;;;;5041343;28;20047;-59
2023/11/29 09:32:58;;;;;;;2.28;1.23;;;;;;;;;;5039198;28;20029;-58
2023/11/29 09:35:30;;;;;;;1.80;1.00;;;;;;;;;;5040564;28;20047;-59
2023/11/29 09:37:58;;;;;;;2.03;0.88;;;;;;;;;;5046377;28;20033;-59
2023/11/29 09:40:26;;;;;;;1.80;0.80;;;;;;;;;;5042929;28;20075;-59
2023/11/29 09:42:52;;;;;;;1.23;0.70;;;;;;;;;;5043602;28;20095;-58
2023/11/29 09:45:21;;;;;;;1.48;0.70;;;;;;;;;;5041175;28;20044;-58
2023/11/29 09:47:46;;;;;;;1.58;0.88;;;;;;;;;;5046127;28;20514;-59
2023/11/29 09:50:12;;;;;;;1.45;0.80;;;;;;;;;;5042602;28;20041;-60
2023/11/29 09:52:37;;;;;;;1.17;0.80;;;;;;;;;;5038664;28;20092;-59
2023/11/29 09:55:03;;;;;;;2.00;0.90;;;;;;;;;;5046304;28;20067;-59
2023/11/29 09:57:29;;;;;;;1.55;1.00;;;;;;;;;;5041134;28;20064;-59
2023/11/29 09:59:55;;;;;;;1.15;0.70;;;;;;;;;;5042985;28;20045;-60
2023/11/29 10:02:21;;;;;;;2.03;0.90;;;;;;;;;;5042745;28;20355;-59
2023/11/29 10:04:47;;;;;;;2.35;0.88;;;;;;;;;;5041651;28;20029;-59
2023/11/29 10:07:12;;;;;;;1.35;0.75;;;;;;;;;;5043032;28;20462;-59
2023/11/29 10:09:37;;;;;;;2.22;0.95;;;;;;;;;;5044530;28;20087;-58
2023/11/29 10:12:05;;;;;;;2.25;1.08;;;;;;;;;;5038949;28;20029;-58
2023/11/29 10:14:33;;;;;;;1.95;0.82;;;;;;;;;;5042203;28;20029;-58
2023/11/29 10:16:59;;;;;;;4.78;2.22;;;;;;;;;;5044716;28;20052;-58
2023/11/29 10:19:24;;;;;;;2.13;1.23;;;;;;;;;;5039811;28;20422;-56
2023/11/29 10:21:53;;;;;;;2.00;1.02;;;;;;;;;;5043213;28;20031;-59
2023/11/29 10:24:24;;;;;;;1.48;0.98;;;;;;;;;;5045988;28;20048;-61
2023/11/29 10:26:50;;;;;;;1.77;0.80;;;;;;;;;;5044692;28;20033;-59
2023/11/29 10:29:17;;;;;;;1.58;1.00;;;;;;;;;;5044685;28;20040;-60
2023/11/29 10:31:42;;;;;;;1.70;1.00;;;;;;;;;;5040335;28;20029;-59
2023/11/29 10:34:08;;;;;;;2.03;1.20;;;;;;;;;;5044505;28;20029;-59
2023/11/29 10:36:33;;;;;;;1.92;1.10;;;;;;;;;;5042329;28;20091;-59
2023/11/29 10:39:08;;;;;;;1.60;0.80;;;;;;;;;;5042581;28;20041;-60
2023/11/29 10:41:57;;;;;;;2.17;1.10;;;;;;;;;;5044673;28;20052;-58
2023/11/29 10:44:27;;;;;;;1.98;0.88;;;;;;;;;;5042819;28;20060;-60
2023/11/29 10:46:56;;;;;;;1.40;0.80;;;;;;;;;;5044609;28;20519;-59
2023/11/29 10:49:29;;;;;;;3.17;1.30;;;;;;;;;;5039966;28;20856;-58
2023/11/29 10:51:54;;;;;;;3.38;1.25;;;;;;;;;;5043010;28;20045;-59
2023/11/29 10:54:20;;;;;;;1.80;0.98;;;;;;;;;;5038382;28;20036;-59
2023/11/29 10:56:48;;;;;;;2.40;1.02;;;;;;;;;;5042424;28;20541;-58
2023/11/29 10:59:24;;;;;;;2.72;1.25;;;;;;;;;;5041876;28;20032;-55
2023/11/29 11:01:58;;;;;;;3.47;0.98;;;;;;;;;;5028239;28;20053;-59
2023/11/29 11:04:32;;;;;;;2.53;1.20;;;;;;;;;;5010039;28;20508;-59
2023/11/29 11:06:59;;;;;;;2.20;1.20;;;;;;;;;;5015892;28;20041;-59
2023/11/29 11:09:31;;;;;;;2.60;1.00;;;;;;;;;;5009290;28;20168;-60
2023/11/29 11:12:00;;;;;;;1.85;0.90;;;;;;;;;;5021603;28;20034;-59
2023/11/29 11:14:52;;;;;;;2.25;1.10;;;;;;;;;;5013508;28;20112;-58
2023/11/29 11:17:18;;;;;;;1.27;0.80;;;;;;;;;;5010993;28;20513;-59
2023/11/29 11:19:48;;;;;;;2.30;1.20;;;;;;;;;;5015267;28;20064;-60
2023/11/29 11:22:19;;;;;;;1.67;1.08;;;;;;;;;;5016933;28;20574;-57
2023/11/29 11:24:57;;;;;;;2.40;1.02;;;;;;;;;;5009595;28;20045;-60
2023/11/29 11:27:29;;;;;;;2.10;1.20;;;;;;;;;;5012308;28;20060;-58
2023/11/29 11:29:55;;;;;;;1.70;0.93;;;;;;;;;;5011646;28;20038;-58
2023/11/29 11:32:56;;;;;;;1.90;0.93;;;;;;;;;;5011627;28;20043;-58
2023/11/29 11:35:24;;;;;;;2.47;1.20;;;;;;;;;;4983098;28;20515;-58
2023/11/29 11:37:50;;;;;;;2.20;0.98;;;;;;;;;;4987581;28;20176;-59
2023/11/29 11:40:20;;;;;;;2.60;1.00;;;;;;;;;;5017785;28;20088;-59
2023/11/29 11:42:45;;;;;;;1.45;0.82;;;;;;;;;;5018606;28;20577;-59
2023/11/29 11:45:12;;;;;;;1.88;1.00;;;;;;;;;;5016972;28;20447;-59
2023/11/29 11:47:37;;;;;;;1.90;0.90;;;;;;;;;;5015997;28;20025;-59
2023/11/29 11:50:04;;;;;;;2.22;1.10;;;;;;;;;;5015933;28;20018;-59
2023/11/29 11:52:29;;;;;;;1.88;0.88;;;;;;;;;;5021108;28;20010;-58
2023/11/29 11:54:54;;;;;;;1.83;0.90;;;;;;;;;;5018308;28;20492;-58
2023/11/29 11:57:20;;;;;;;1.65;1.20;;;;;;;;;;5012135;28;20033;-60
2023/11/29 11:59:50;;;;;;;1.35;0.82;;;;;;;;;;5011966;28;20029;-59
2023/11/29 12:02:16;;;;;;;2.00;1.05;;;;;;;;;;5011934;28;20044;-60
2023/11/29 12:04:41;;;;;;;2.05;1.42;;;;;;;;;;5014651;28;20027;-59
2023/11/29 12:07:06;;;;;;;2.72;1.00;;;;;;;;;;5010260;28;20541;-59
2023/11/29 12:09:34;;;;;;;3.40;1.17;;;;;;;;;;5010874;28;20141;-60
2023/11/29 12:12:07;;;;;;;1.77;1.00;;;;;;;;;;5020468;28;20452;-59
2023/11/29 12:14:32;;;;;;;2.60;1.00;;;;;;;;;;5012175;28;20109;-58
2023/11/29 12:16:58;;;;;;;2.53;1.10;;;;;;;;;;5013736;28;20058;-62
2023/11/29 12:19:23;;;;;;;3.25;1.30;;;;;;;;;;5014363;28;20037;-62
2023/11/29 12:21:48;;;;;;;2.10;1.08;;;;;;;;;;5014269;28;20038;-62
2023/11/29 12:24:14;;;;;;;1.25;0.80;;;;;;;;;;5012247;28;20945;-61
2023/11/29 12:26:39;;;;;;;2.42;1.13;;;;;;;;;;5015511;28;20049;-60
2023/11/29 12:29:05;;;;;;;1.70;1.10;;;;;;;;;;5012052;28;20080;-59
2023/11/29 12:31:50;;;;;;;1.90;0.95;;;;;;;;;;5005435;28;22107;-63
2023/11/29 12:34:16;;;;;;;2.15;1.10;;;;;;;;;;5022199;28;20522;-63
2023/11/29 12:36:45;;;;;;;2.13;1.30;;;;;;;;;;5016132;28;20136;-62
2023/11/29 12:39:10;;;;;;;1.88;1.00;;;;;;;;;;5009000;28;20079;-62
2023/11/29 12:41:36;;;;;;;2.08;1.05;;;;;;;;;;5017676;28;20041;-62
2023/11/29 12:44:01;;;;;;;1.95;1.00;;;;;;;;;;5023705;28;20503;-62
2023/11/29 12:46:29;;;;;;;2.70;1.10;;;;;;;;;;5014455;28;20038;-61
2023/11/29 12:48:55;;;;;;;2.28;1.35;;;;;;;;;;5012957;28;20037;-62
2023/11/29 12:51:20;;;;;;;1.98;1.15;;;;;;;;;;5027354;28;20037;-62
2023/11/29 12:53:45;;;;;;;1.95;1.05;;;;;;;;;;5021335;28;20164;-62
2023/11/29 12:56:11;;;;;;;2.25;1.15;;;;;;;;;;5015685;28;20128;-62
2023/11/29 12:58:36;;;;;;;4.00;1.23;;;;;;;;;;5012762;28;20045;-61
2023/11/29 13:01:05;;;;;;;3.03;1.38;;;;;;;;;;5011624;28;20387;-61
2023/11/29 13:03:30;;;;;;;1.83;1.13;;;;;;;;;;5007240;28;20536;-62
2023/11/29 13:05:55;;;;;;;3.65;1.20;;;;;;;;;;5016540;28;21715;-63
2023/11/29 13:08:21;;;;;;;2.47;1.30;;;;;;;;;;5015099;28;20046;-63
2023/11/29 13:10:49;;;;;;;2.10;1.30;;;;;;;;;;5013901;28;20387;-61
2023/11/29 13:13:15;;;;;;;2.25;1.10;;;;;;;;;;5012646;28;20521;-62
2023/11/29 13:15:40;;;;;;;2.90;1.08;;;;;;;;;;5009898;28;20128;-62
2023/11/29 13:18:05;;;;;;;2.60;1.20;;;;;;;;;;5013840;28;20411;-62
2023/11/29 13:20:30;;;;;;;2.00;1.00;;;;;;;;;;5009141;28;20514;-63
2023/11/29 13:22:58;;;;;;;2.13;1.20;;;;;;;;;;5015041;28;20044;-62
2023/11/29 13:25:23;;;;;;;2.53;1.15;;;;;;;;;;5009807;28;20717;-63
2023/11/29 13:27:49;;;;;;;2.30;1.23;;;;;;;;;;5015292;28;20598;-62
2023/11/29 13:30:14;;;;;;;2.58;1.40;;;;;;;;;;5016130;28;20040;-62
2023/11/29 13:32:39;;;;;;;2.15;1.13;;;;;;;;;;5012611;28;20029;-62
2023/11/29 13:35:06;;;;;;;2.20;1.10;;;;;;;;;;5004496;28;20128;-62
2023/11/29 13:37:31;;;;;;;2.00;1.00;;;;;;;;;;5012254;28;20136;-62
2023/11/29 13:39:57;;;;;;;2.00;1.20;;;;;;;;;;5018642;28;20126;-62
2023/11/29 13:42:22;;;;;;;2.50;1.02;;;;;;;;;;5022144;28;20034;-61
2023/11/29 13:44:48;;;;;;;1.80;1.00;;;;;;;;;;5014453;28;20067;-63
2023/11/29 13:47:17;;;;;;;1.98;1.10;;;;;;;;;;5013233;28;20030;-60
2023/11/29 13:49:42;;;;;;;1.92;1.13;;;;;;;;;;5014976;28;20116;-61
2023/11/29 13:52:07;;;;;;;2.13;1.08;;;;;;;;;;5012973;28;20590;-60
2023/11/29 13:54:32;;;;;;;1.88;1.15;;;;;;;;;;5014751;28;20496;-61
2023/11/29 13:56:58;;;;;;;2.35;1.20;;;;;;;;;;5014493;28;20041;-60
2023/11/29 13:59:26;;;;;;;1.70;1.00;;;;;;;;;;5012589;28;20033;-63
2023/11/29 14:01:51;;;;;;;2.42;1.40;;;;;;;;;;5014845;28;20037;-62
2023/11/29 14:04:16;;;;;;;2.17;1.08;;;;;;;;;;5011564;28;20033;-62
2023/11/29 14:06:45;;;;;;;1.80;1.23;;;;;;;;;;5013457;28;20092;-63
2023/11/29 14:09:11;;;;;;;1.92;1.08;;;;;;;;;;5015321;28;20047;-61
2023/11/29 14:11:56;;;;;;;1.50;1.02;;;;;;;;;;5015621;28;20819;-61
2023/11/29 14:14:22;;;;;;;2.50;1.25;;;;;;;;;;5012381;28;20046;-62
2023/11/29 14:16:47;;;;;;;2.13;1.17;;;;;;;;;;5011340;28;20056;-59
2023/11/29 14:19:13;;;;;;;2.53;1.00;;;;;;;;;;5026220;28;20029;-58
2023/11/29 14:21:38;;;;;;;1.48;0.95;;;;;;;;;;5040614;28;20428;-58
2023/11/29 14:24:03;;;;;;;2.10;1.30;;;;;;;;;;5044542;28;20033;-59
2023/11/29 14:26:29;;;;;;;2.00;1.10;;;;;;;;;;5045953;28;20044;-60
2023/11/29 14:28:54;;;;;;;1.42;0.93;;;;;;;;;;5040181;28;20513;-58
2023/11/29 14:31:19;;;;;;;1.58;0.90;;;;;;;;;;5028970;28;20128;-58
2023/11/29 14:33:45;;;;;;;1.83;1.08;;;;;;;;;;5021117;28;20040;-58
2023/11/29 14:36:13;;;;;;;2.17;1.10;;;;;;;;;;5043337;28;20033;-59
2023/11/29 14:38:39;;;;;;;1.98;1.10;;;;;;;;;;5044069;28;20519;-58